Schedule Details


Flight Number: CTN385
Departure: Cilipi (LDDU) at 20:00
Arrival: Franjo Tudman (LDZA) at 21:05
Route: MADOS L187 VRANA UL187 KOMAR L187 TEBLI

Weather Information
LDDU 190930Z 12003KT 080V190 9999 FEW030 SCT047 13/07 Q1019 BECMG 14008KT
LDZA 190930Z VRB02KT CAVOK 08/01 Q1022 NOSIG
Schedule Frequency

Route Map